sensor_id;sensor_type;location;lat;lon;timestamp;P1;durP1;ratioP1;P2;durP2;ratioP2
2766;SDS011;1391;46.742;11.636;2022-10-10T00:00:53;3.53;;;3.13;;
2766;SDS011;1391;46.742;11.636;2022-10-10T00:03:21;3.97;;;3.10;;
2766;SDS011;1391;46.742;11.636;2022-10-10T00:05:51;5.83;;;3.10;;
2766;SDS011;1391;46.742;11.636;2022-10-10T00:08:18;10.43;;;3.07;;
2766;SDS011;1391;46.742;11.636;2022-10-10T00:10:46;4.33;;;3.40;;
2766;SDS011;1391;46.742;11.636;2022-10-10T00:13:13;4.60;;;3.20;;
2766;SDS011;1391;46.742;11.636;2022-10-10T00:15:42;4.63;;;3.57;;
2766;SDS011;1391;46.742;11.636;2022-10-10T00:18:10;7.93;;;2.90;;
2766;SDS011;1391;46.742;11.636;2022-10-10T00:20:37;3.77;;;3.10;;
2766;SDS011;1391;46.742;11.636;2022-10-10T00:23:06;6.77;;;3.50;;
2766;SDS011;1391;46.742;11.636;2022-10-10T00:25:33;6.67;;;3.50;;
2766;SDS011;1391;46.742;11.636;2022-10-10T00:28:02;9.50;;;3.17;;
2766;SDS011;1391;46.742;11.636;2022-10-10T00:30:31;4.37;;;3.60;;
2766;SDS011;1391;46.742;11.636;2022-10-10T00:32:58;8.37;;;3.10;;
2766;SDS011;1391;46.742;11.636;2022-10-10T00:35:27;3.83;;;3.27;;
2766;SDS011;1391;46.742;11.636;2022-10-10T00:37:54;6.57;;;3.37;;
2766;SDS011;1391;46.742;11.636;2022-10-10T00:40:24;7.40;;;3.40;;
2766;SDS011;1391;46.742;11.636;2022-10-10T00:42:52;5.43;;;3.43;;
2766;SDS011;1391;46.742;11.636;2022-10-10T00:45:25;5.63;;;3.17;;
2766;SDS011;1391;46.742;11.636;2022-10-10T00:48:03;4.87;;;3.40;;
2766;SDS011;1391;46.742;11.636;2022-10-10T00:50:34;6.97;;;3.80;;
2766;SDS011;1391;46.742;11.636;2022-10-10T00:53:05;6.40;;;3.37;;
2766;SDS011;1391;46.742;11.636;2022-10-10T00:55:35;8.57;;;3.33;;
2766;SDS011;1391;46.742;11.636;2022-10-10T00:58:03;4.80;;;3.13;;
2766;SDS011;1391;46.742;11.636;2022-10-10T01:00:32;3.97;;;3.17;;
2766;SDS011;1391;46.742;11.636;2022-10-10T01:02:59;10.07;;;3.37;;
2766;SDS011;1391;46.742;11.636;2022-10-10T01:05:27;4.73;;;3.30;;
2766;SDS011;1391;46.742;11.636;2022-10-10T01:07:55;6.93;;;3.33;;
2766;SDS011;1391;46.742;11.636;2022-10-10T01:10:23;4.77;;;3.10;;
2766;SDS011;1391;46.742;11.636;2022-10-10T01:12:58;5.87;;;3.43;;
2766;SDS011;1391;46.742;11.636;2022-10-10T01:15:40;5.40;;;3.50;;
2766;SDS011;1391;46.742;11.636;2022-10-10T01:18:18;7.30;;;3.57;;
2766;SDS011;1391;46.742;11.636;2022-10-10T01:20:58;6.17;;;3.33;;
2766;SDS011;1391;46.742;11.636;2022-10-10T01:26:59;5.40;;;3.20;;
2766;SDS011;1391;46.742;11.636;2022-10-10T01:29:41;4.80;;;3.00;;
2766;SDS011;1391;46.742;11.636;2022-10-10T01:32:13;5.20;;;3.60;;
2766;SDS011;1391;46.742;11.636;2022-10-10T01:34:51;6.93;;;3.97;;
2766;SDS011;1391;46.742;11.636;2022-10-10T01:37:32;11.87;;;3.70;;
2766;SDS011;1391;46.742;11.636;2022-10-10T01:40:08;6.60;;;3.30;;
2766;SDS011;1391;46.742;11.636;2022-10-10T01:42:45;6.83;;;3.67;;
2766;SDS011;1391;46.742;11.636;2022-10-10T01:45:18;6.27;;;3.40;;
2766;SDS011;1391;46.742;11.636;2022-10-10T01:47:46;8.33;;;3.20;;
2766;SDS011;1391;46.742;11.636;2022-10-10T01:50:15;3.20;;;2.87;;
2766;SDS011;1391;46.742;11.636;2022-10-10T01:52:47;5.70;;;3.40;;
2766;SDS011;1391;46.742;11.636;2022-10-10T01:55:29;9.23;;;3.43;;
2766;SDS011;1391;46.742;11.636;2022-10-10T01:58:17;7.50;;;3.63;;
2766;SDS011;1391;46.742;11.636;2022-10-10T02:01:23;7.97;;;3.53;;
2766;SDS011;1391;46.742;11.636;2022-10-10T02:03:59;8.03;;;3.40;;
2766;SDS011;1391;46.742;11.636;2022-10-10T02:06:35;4.53;;;3.30;;
2766;SDS011;1391;46.742;11.636;2022-10-10T02:09:08;4.97;;;3.27;;
2766;SDS011;1391;46.742;11.636;2022-10-10T02:11:39;8.67;;;3.40;;
2766;SDS011;1391;46.742;11.636;2022-10-10T02:14:09;5.40;;;3.37;;
2766;SDS011;1391;46.742;11.636;2022-10-10T02:16:43;6.43;;;3.60;;
2766;SDS011;1391;46.742;11.636;2022-10-10T02:19:14;4.43;;;2.93;;
2766;SDS011;1391;46.742;11.636;2022-10-10T02:21:46;5.30;;;3.40;;
2766;SDS011;1391;46.742;11.636;2022-10-10T02:24:16;5.20;;;3.33;;
2766;SDS011;1391;46.742;11.636;2022-10-10T02:26:45;5.03;;;3.40;;
2766;SDS011;1391;46.742;11.636;2022-10-10T02:29:20;4.30;;;3.30;;
2766;SDS011;1391;46.742;11.636;2022-10-10T02:31:53;7.17;;;3.43;;
2766;SDS011;1391;46.742;11.636;2022-10-10T02:34:31;7.13;;;3.57;;
2766;SDS011;1391;46.742;11.636;2022-10-10T02:37:05;5.83;;;3.57;;
2766;SDS011;1391;46.742;11.636;2022-10-10T02:39:38;5.20;;;3.70;;
2766;SDS011;1391;46.742;11.636;2022-10-10T02:42:09;4.50;;;3.13;;
2766;SDS011;1391;46.742;11.636;2022-10-10T02:44:41;7.17;;;3.23;;
2766;SDS011;1391;46.742;11.636;2022-10-10T02:47:10;5.90;;;3.57;;
2766;SDS011;1391;46.742;11.636;2022-10-10T02:49:39;8.63;;;3.40;;
2766;SDS011;1391;46.742;11.636;2022-10-10T02:52:06;4.33;;;3.47;;
2766;SDS011;1391;46.742;11.636;2022-10-10T02:54:35;5.90;;;3.43;;
2766;SDS011;1391;46.742;11.636;2022-10-10T02:57:02;3.90;;;3.50;;
2766;SDS011;1391;46.742;11.636;2022-10-10T02:59:30;6.23;;;3.73;;
2766;SDS011;1391;46.742;11.636;2022-10-10T03:01:57;8.23;;;3.93;;
2766;SDS011;1391;46.742;11.636;2022-10-10T03:04:26;5.70;;;3.73;;
2766;SDS011;1391;46.742;11.636;2022-10-10T03:06:54;5.90;;;3.50;;
2766;SDS011;1391;46.742;11.636;2022-10-10T03:09:21;4.77;;;3.20;;
2766;SDS011;1391;46.742;11.636;2022-10-10T03:11:48;8.90;;;3.63;;
2766;SDS011;1391;46.742;11.636;2022-10-10T03:14:15;5.40;;;3.50;;
2766;SDS011;1391;46.742;11.636;2022-10-10T03:16:43;10.60;;;4.00;;
2766;SDS011;1391;46.742;11.636;2022-10-10T03:19:10;4.23;;;3.83;;
2766;SDS011;1391;46.742;11.636;2022-10-10T03:21:39;5.10;;;3.40;;
2766;SDS011;1391;46.742;11.636;2022-10-10T03:24:06;8.93;;;3.70;;
2766;SDS011;1391;46.742;11.636;2022-10-10T03:26:33;5.67;;;3.60;;
2766;SDS011;1391;46.742;11.636;2022-10-10T03:29:00;5.37;;;3.60;;
2766;SDS011;1391;46.742;11.636;2022-10-10T03:31:28;6.53;;;3.90;;
2766;SDS011;1391;46.742;11.636;2022-10-10T03:33:56;7.20;;;3.70;;
2766;SDS011;1391;46.742;11.636;2022-10-10T03:36:23;6.27;;;3.47;;
2766;SDS011;1391;46.742;11.636;2022-10-10T03:38:52;3.90;;;3.30;;
2766;SDS011;1391;46.742;11.636;2022-10-10T03:41:19;8.40;;;3.80;;
2766;SDS011;1391;46.742;11.636;2022-10-10T03:43:47;6.07;;;3.90;;
2766;SDS011;1391;46.742;11.636;2022-10-10T03:46:14;4.50;;;3.60;;
2766;SDS011;1391;46.742;11.636;2022-10-10T03:48:41;7.03;;;3.93;;
2766;SDS011;1391;46.742;11.636;2022-10-10T03:51:08;12.20;;;4.10;;
2766;SDS011;1391;46.742;11.636;2022-10-10T03:53:36;4.40;;;3.50;;
2766;SDS011;1391;46.742;11.636;2022-10-10T03:56:05;5.40;;;3.73;;
2766;SDS011;1391;46.742;11.636;2022-10-10T03:58:32;5.80;;;3.70;;
2766;SDS011;1391;46.742;11.636;2022-10-10T04:01:00;7.90;;;4.00;;
2766;SDS011;1391;46.742;11.636;2022-10-10T04:03:29;5.27;;;3.50;;
2766;SDS011;1391;46.742;11.636;2022-10-10T04:05:56;8.23;;;3.80;;
2766;SDS011;1391;46.742;11.636;2022-10-10T04:08:24;9.20;;;3.90;;
2766;SDS011;1391;46.742;11.636;2022-10-10T04:10:52;4.50;;;3.43;;
2766;SDS011;1391;46.742;11.636;2022-10-10T04:13:22;6.17;;;3.60;;
2766;SDS011;1391;46.742;11.636;2022-10-10T04:15:51;10.80;;;3.73;;
2766;SDS011;1391;46.742;11.636;2022-10-10T04:18:21;7.47;;;3.60;;
2766;SDS011;1391;46.742;11.636;2022-10-10T04:20:49;7.07;;;4.00;;
2766;SDS011;1391;46.742;11.636;2022-10-10T04:23:16;4.57;;;3.30;;
2766;SDS011;1391;46.742;11.636;2022-10-10T04:25:44;5.07;;;3.77;;
2766;SDS011;1391;46.742;11.636;2022-10-10T04:28:12;6.00;;;3.80;;
2766;SDS011;1391;46.742;11.636;2022-10-10T04:30:42;4.53;;;3.57;;
2766;SDS011;1391;46.742;11.636;2022-10-10T04:33:09;8.53;;;4.27;;
2766;SDS011;1391;46.742;11.636;2022-10-10T04:35:37;6.93;;;3.80;;
2766;SDS011;1391;46.742;11.636;2022-10-10T04:38:05;6.37;;;3.80;;
2766;SDS011;1391;46.742;11.636;2022-10-10T04:40:34;5.43;;;3.67;;
2766;SDS011;1391;46.742;11.636;2022-10-10T04:43:03;8.47;;;3.80;;
2766;SDS011;1391;46.742;11.636;2022-10-10T04:45:30;5.83;;;3.97;;
2766;SDS011;1391;46.742;11.636;2022-10-10T04:47:59;5.17;;;3.70;;
2766;SDS011;1391;46.742;11.636;2022-10-10T04:50:26;10.40;;;4.43;;
2766;SDS011;1391;46.742;11.636;2022-10-10T04:52:53;8.87;;;5.03;;
2766;SDS011;1391;46.742;11.636;2022-10-10T04:55:20;7.10;;;5.10;;
2766;SDS011;1391;46.742;11.636;2022-10-10T04:57:48;9.13;;;5.50;;
2766;SDS011;1391;46.742;11.636;2022-10-10T05:00:15;7.30;;;5.83;;
2766;SDS011;1391;46.742;11.636;2022-10-10T05:02:43;6.43;;;5.40;;
2766;SDS011;1391;46.742;11.636;2022-10-10T05:05:12;7.63;;;4.80;;
2766;SDS011;1391;46.742;11.636;2022-10-10T05:07:39;8.70;;;5.20;;
2766;SDS011;1391;46.742;11.636;2022-10-10T05:10:06;6.53;;;4.57;;
2766;SDS011;1391;46.742;11.636;2022-10-10T05:12:34;8.37;;;5.20;;
2766;SDS011;1391;46.742;11.636;2022-10-10T05:15:02;9.30;;;5.27;;
2766;SDS011;1391;46.742;11.636;2022-10-10T05:17:29;10.23;;;6.00;;
2766;SDS011;1391;46.742;11.636;2022-10-10T05:19:57;7.80;;;5.10;;
2766;SDS011;1391;46.742;11.636;2022-10-10T05:22:25;5.93;;;4.50;;
2766;SDS011;1391;46.742;11.636;2022-10-10T05:24:53;9.27;;;5.07;;
2766;SDS011;1391;46.742;11.636;2022-10-10T05:27:20;8.70;;;4.83;;
2766;SDS011;1391;46.742;11.636;2022-10-10T05:29:48;9.00;;;4.97;;
2766;SDS011;1391;46.742;11.636;2022-10-10T05:32:15;8.70;;;4.97;;
2766;SDS011;1391;46.742;11.636;2022-10-10T05:34:42;7.70;;;5.03;;
2766;SDS011;1391;46.742;11.636;2022-10-10T05:37:09;9.63;;;5.33;;
2766;SDS011;1391;46.742;11.636;2022-10-10T05:39:38;6.50;;;4.80;;
2766;SDS011;1391;46.742;11.636;2022-10-10T05:42:05;7.93;;;5.07;;
2766;SDS011;1391;46.742;11.636;2022-10-10T05:44:33;8.23;;;5.27;;
2766;SDS011;1391;46.742;11.636;2022-10-10T05:47:00;7.27;;;5.30;;
2766;SDS011;1391;46.742;11.636;2022-10-10T05:49:28;11.37;;;5.37;;
2766;SDS011;1391;46.742;11.636;2022-10-10T05:51:55;11.10;;;6.00;;
2766;SDS011;1391;46.742;11.636;2022-10-10T05:54:23;9.30;;;5.70;;
2766;SDS011;1391;46.742;11.636;2022-10-10T05:56:52;6.53;;;5.20;;
2766;SDS011;1391;46.742;11.636;2022-10-10T05:59:19;6.07;;;5.03;;
2766;SDS011;1391;46.742;11.636;2022-10-10T06:01:46;8.27;;;4.83;;
2766;SDS011;1391;46.742;11.636;2022-10-10T06:04:13;8.97;;;4.80;;
2766;SDS011;1391;46.742;11.636;2022-10-10T06:06:41;6.47;;;4.87;;
2766;SDS011;1391;46.742;11.636;2022-10-10T06:09:08;8.87;;;4.57;;
2766;SDS011;1391;46.742;11.636;2022-10-10T06:11:35;7.53;;;4.30;;
2766;SDS011;1391;46.742;11.636;2022-10-10T06:14:04;9.10;;;4.90;;
2766;SDS011;1391;46.742;11.636;2022-10-10T06:16:31;6.60;;;5.07;;
2766;SDS011;1391;46.742;11.636;2022-10-10T06:18:59;10.13;;;5.70;;
2766;SDS011;1391;46.742;11.636;2022-10-10T06:21:26;7.70;;;4.83;;
2766;SDS011;1391;46.742;11.636;2022-10-10T06:23:53;11.50;;;5.00;;
2766;SDS011;1391;46.742;11.636;2022-10-10T06:26:20;12.73;;;5.63;;
2766;SDS011;1391;46.742;11.636;2022-10-10T06:28:48;6.77;;;5.07;;
2766;SDS011;1391;46.742;11.636;2022-10-10T06:31:17;8.27;;;5.30;;
2766;SDS011;1391;46.742;11.636;2022-10-10T06:33:45;9.50;;;5.30;;
2766;SDS011;1391;46.742;11.636;2022-10-10T06:36:13;8.20;;;4.80;;
2766;SDS011;1391;46.742;11.636;2022-10-10T06:38:42;8.93;;;5.03;;
2766;SDS011;1391;46.742;11.636;2022-10-10T06:41:10;9.07;;;5.30;;
2766;SDS011;1391;46.742;11.636;2022-10-10T06:43:38;9.50;;;5.50;;
2766;SDS011;1391;46.742;11.636;2022-10-10T06:46:06;8.47;;;4.83;;
2766;SDS011;1391;46.742;11.636;2022-10-10T06:48:37;7.60;;;4.13;;
2766;SDS011;1391;46.742;11.636;2022-10-10T06:51:06;9.20;;;6.13;;
2766;SDS011;1391;46.742;11.636;2022-10-10T06:53:36;6.47;;;4.70;;
2766;SDS011;1391;46.742;11.636;2022-10-10T06:56:03;7.10;;;5.07;;
2766;SDS011;1391;46.742;11.636;2022-10-10T06:58:30;9.97;;;5.07;;
2766;SDS011;1391;46.742;11.636;2022-10-10T07:00:59;10.43;;;4.87;;
2766;SDS011;1391;46.742;11.636;2022-10-10T07:03:29;13.10;;;4.83;;
2766;SDS011;1391;46.742;11.636;2022-10-10T07:05:59;9.57;;;4.80;;
2766;SDS011;1391;46.742;11.636;2022-10-10T07:08:28;8.43;;;4.30;;
2766;SDS011;1391;46.742;11.636;2022-10-10T07:10:56;15.63;;;5.50;;
2766;SDS011;1391;46.742;11.636;2022-10-10T07:13:23;10.60;;;4.97;;
2766;SDS011;1391;46.742;11.636;2022-10-10T07:15:50;9.87;;;4.60;;
2766;SDS011;1391;46.742;11.636;2022-10-10T07:18:18;11.30;;;5.03;;
2766;SDS011;1391;46.742;11.636;2022-10-10T07:20:46;8.47;;;4.80;;
2766;SDS011;1391;46.742;11.636;2022-10-10T07:23:15;9.50;;;5.23;;
2766;SDS011;1391;46.742;11.636;2022-10-10T07:25:42;5.93;;;4.10;;
2766;SDS011;1391;46.742;11.636;2022-10-10T07:28:09;9.40;;;4.60;;
2766;SDS011;1391;46.742;11.636;2022-10-10T07:30:40;7.50;;;4.77;;
2766;SDS011;1391;46.742;11.636;2022-10-10T07:33:09;10.10;;;4.93;;
2766;SDS011;1391;46.742;11.636;2022-10-10T07:35:36;13.00;;;5.53;;
2766;SDS011;1391;46.742;11.636;2022-10-10T07:38:03;9.27;;;4.80;;
2766;SDS011;1391;46.742;11.636;2022-10-10T07:40:32;8.50;;;4.57;;
2766;SDS011;1391;46.742;11.636;2022-10-10T07:43:00;6.43;;;4.83;;
2766;SDS011;1391;46.742;11.636;2022-10-10T07:45:27;8.57;;;4.23;;
2766;SDS011;1391;46.742;11.636;2022-10-10T07:47:54;8.67;;;4.93;;
2766;SDS011;1391;46.742;11.636;2022-10-10T07:50:22;17.53;;;5.40;;
2766;SDS011;1391;46.742;11.636;2022-10-10T07:52:50;7.20;;;4.23;;
2766;SDS011;1391;46.742;11.636;2022-10-10T07:55:17;10.47;;;4.20;;
2766;SDS011;1391;46.742;11.636;2022-10-10T07:57:46;9.10;;;5.10;;
2766;SDS011;1391;46.742;11.636;2022-10-10T08:00:16;8.70;;;4.30;;
2766;SDS011;1391;46.742;11.636;2022-10-10T08:02:43;9.03;;;4.40;;
2766;SDS011;1391;46.742;11.636;2022-10-10T08:05:10;6.93;;;4.80;;
2766;SDS011;1391;46.742;11.636;2022-10-10T08:07:38;9.33;;;4.83;;
2766;SDS011;1391;46.742;11.636;2022-10-10T08:10:05;10.40;;;4.83;;
2766;SDS011;1391;46.742;11.636;2022-10-10T08:12:34;8.03;;;4.73;;
2766;SDS011;1391;46.742;11.636;2022-10-10T08:15:03;8.90;;;4.97;;
2766;SDS011;1391;46.742;11.636;2022-10-10T08:17:32;5.73;;;4.47;;
2766;SDS011;1391;46.742;11.636;2022-10-10T08:19:59;9.87;;;5.10;;
2766;SDS011;1391;46.742;11.636;2022-10-10T08:22:26;8.23;;;4.43;;
2766;SDS011;1391;46.742;11.636;2022-10-10T08:24:54;5.17;;;3.90;;
2766;SDS011;1391;46.742;11.636;2022-10-10T08:27:21;7.33;;;4.03;;
2766;SDS011;1391;46.742;11.636;2022-10-10T08:29:48;5.77;;;4.00;;
2766;SDS011;1391;46.742;11.636;2022-10-10T08:32:17;7.17;;;4.30;;
2766;SDS011;1391;46.742;11.636;2022-10-10T08:34:44;6.43;;;3.80;;
2766;SDS011;1391;46.742;11.636;2022-10-10T08:37:12;12.63;;;4.23;;
2766;SDS011;1391;46.742;11.636;2022-10-10T08:39:39;6.07;;;3.83;;
2766;SDS011;1391;46.742;11.636;2022-10-10T08:42:08;9.73;;;3.83;;
2766;SDS011;1391;46.742;11.636;2022-10-10T08:44:42;6.20;;;4.13;;
2766;SDS011;1391;46.742;11.636;2022-10-10T08:47:14;6.27;;;3.60;;
2766;SDS011;1391;46.742;11.636;2022-10-10T08:49:47;8.40;;;3.73;;
2766;SDS011;1391;46.742;11.636;2022-10-10T08:52:21;4.23;;;3.30;;
2766;SDS011;1391;46.742;11.636;2022-10-10T08:54:57;3.63;;;3.10;;
2766;SDS011;1391;46.742;11.636;2022-10-10T08:57:29;5.80;;;3.20;;
2766;SDS011;1391;46.742;11.636;2022-10-10T09:00:02;5.73;;;3.57;;
2766;SDS011;1391;46.742;11.636;2022-10-10T09:02:38;9.93;;;3.67;;
2766;SDS011;1391;46.742;11.636;2022-10-10T09:05:13;6.70;;;3.30;;
2766;SDS011;1391;46.742;11.636;2022-10-10T09:07:56;6.10;;;3.67;;
2766;SDS011;1391;46.742;11.636;2022-10-10T09:10:39;6.80;;;3.37;;
2766;SDS011;1391;46.742;11.636;2022-10-10T09:13:20;6.00;;;3.70;;
2766;SDS011;1391;46.742;11.636;2022-10-10T09:15:57;6.47;;;3.40;;
2766;SDS011;1391;46.742;11.636;2022-10-10T09:18:34;5.13;;;3.97;;
2766;SDS011;1391;46.742;11.636;2022-10-10T09:21:13;5.37;;;3.43;;
2766;SDS011;1391;46.742;11.636;2022-10-10T09:23:46;8.43;;;4.03;;
2766;SDS011;1391;46.742;11.636;2022-10-10T09:26:18;7.33;;;3.60;;
2766;SDS011;1391;46.742;11.636;2022-10-10T09:28:51;9.63;;;3.50;;
2766;SDS011;1391;46.742;11.636;2022-10-10T09:31:25;6.53;;;3.63;;
2766;SDS011;1391;46.742;11.636;2022-10-10T09:34:02;9.30;;;3.67;;
2766;SDS011;1391;46.742;11.636;2022-10-10T09:36:35;6.93;;;3.60;;
2766;SDS011;1391;46.742;11.636;2022-10-10T09:39:04;7.30;;;3.40;;
2766;SDS011;1391;46.742;11.636;2022-10-10T09:41:45;6.33;;;3.57;;
2766;SDS011;1391;46.742;11.636;2022-10-10T09:44:22;5.27;;;3.57;;
2766;SDS011;1391;46.742;11.636;2022-10-10T09:46:52;8.23;;;3.70;;
2766;SDS011;1391;46.742;11.636;2022-10-10T09:49:21;5.13;;;3.40;;
2766;SDS011;1391;46.742;11.636;2022-10-10T09:51:48;5.20;;;2.90;;
2766;SDS011;1391;46.742;11.636;2022-10-10T09:54:17;5.63;;;3.10;;
2766;SDS011;1391;46.742;11.636;2022-10-10T09:56:47;4.53;;;3.10;;
2766;SDS011;1391;46.742;11.636;2022-10-10T10:02:10;5.43;;;3.10;;
2766;SDS011;1391;46.742;11.636;2022-10-10T10:04:42;5.20;;;3.03;;
2766;SDS011;1391;46.742;11.636;2022-10-10T10:07:17;5.73;;;3.50;;
2766;SDS011;1391;46.742;11.636;2022-10-10T10:09:54;3.43;;;3.07;;
2766;SDS011;1391;46.742;11.636;2022-10-10T10:12:26;9.20;;;3.00;;
2766;SDS011;1391;46.742;11.636;2022-10-10T10:14:59;7.63;;;3.33;;
2766;SDS011;1391;46.742;11.636;2022-10-10T10:17:30;5.90;;;3.23;;
2766;SDS011;1391;46.742;11.636;2022-10-10T10:19:59;5.93;;;3.17;;
2766;SDS011;1391;46.742;11.636;2022-10-10T10:22:31;5.73;;;2.93;;
2766;SDS011;1391;46.742;11.636;2022-10-10T10:30:42;7.20;;;3.13;;
2766;SDS011;1391;46.742;11.636;2022-10-10T10:33:13;4.10;;;2.90;;
2766;SDS011;1391;46.742;11.636;2022-10-10T10:35:56;8.60;;;3.00;;
2766;SDS011;1391;46.742;11.636;2022-10-10T10:38:33;5.97;;;2.70;;
2766;SDS011;1391;46.742;11.636;2022-10-10T10:41:10;3.87;;;2.43;;
2766;SDS011;1391;46.742;11.636;2022-10-10T10:43:50;7.17;;;2.90;;
2766;SDS011;1391;46.742;11.636;2022-10-10T10:46:50;7.63;;;3.33;;
2766;SDS011;1391;46.742;11.636;2022-10-10T10:49:34;7.07;;;3.33;;
2766;SDS011;1391;46.742;11.636;2022-10-10T10:52:15;5.93;;;2.90;;
2766;SDS011;1391;46.742;11.636;2022-10-10T10:55:16;4.70;;;2.83;;
2766;SDS011;1391;46.742;11.636;2022-10-10T10:57:58;6.77;;;2.93;;
2766;SDS011;1391;46.742;11.636;2022-10-10T11:00:55;7.97;;;2.93;;
2766;SDS011;1391;46.742;11.636;2022-10-10T11:03:30;3.87;;;2.70;;
2766;SDS011;1391;46.742;11.636;2022-10-10T11:06:17;4.87;;;2.80;;
2766;SDS011;1391;46.742;11.636;2022-10-10T11:09:09;4.17;;;2.70;;
2766;SDS011;1391;46.742;11.636;2022-10-10T11:11:46;4.43;;;2.80;;
2766;SDS011;1391;46.742;11.636;2022-10-10T11:14:38;6.07;;;2.73;;
2766;SDS011;1391;46.742;11.636;2022-10-10T11:17:22;5.77;;;3.47;;
2766;SDS011;1391;46.742;11.636;2022-10-10T11:19:56;5.43;;;3.07;;
2766;SDS011;1391;46.742;11.636;2022-10-10T11:22:28;4.07;;;2.93;;
2766;SDS011;1391;46.742;11.636;2022-10-10T11:25:06;5.13;;;2.90;;
2766;SDS011;1391;46.742;11.636;2022-10-10T11:27:42;6.30;;;3.03;;
2766;SDS011;1391;46.742;11.636;2022-10-10T11:30:16;6.50;;;3.33;;
2766;SDS011;1391;46.742;11.636;2022-10-10T11:32:47;8.00;;;2.77;;
2766;SDS011;1391;46.742;11.636;2022-10-10T11:35:23;6.17;;;3.00;;
2766;SDS011;1391;46.742;11.636;2022-10-10T11:38:03;6.93;;;3.27;;
2766;SDS011;1391;46.742;11.636;2022-10-10T11:40:43;4.93;;;3.20;;
2766;SDS011;1391;46.742;11.636;2022-10-10T11:43:41;7.00;;;3.43;;
2766;SDS011;1391;46.742;11.636;2022-10-10T11:46:19;7.53;;;2.83;;
2766;SDS011;1391;46.742;11.636;2022-10-10T11:49:05;4.77;;;2.20;;
2766;SDS011;1391;46.742;11.636;2022-10-10T11:52:00;5.80;;;2.17;;
2766;SDS011;1391;46.742;11.636;2022-10-10T11:54:45;4.57;;;2.10;;
2766;SDS011;1391;46.742;11.636;2022-10-10T11:57:29;6.07;;;2.30;;
2766;SDS011;1391;46.742;11.636;2022-10-10T12:00:03;4.83;;;2.20;;
2766;SDS011;1391;46.742;11.636;2022-10-10T12:02:35;8.27;;;2.37;;
2766;SDS011;1391;46.742;11.636;2022-10-10T12:05:05;6.83;;;2.17;;
2766;SDS011;1391;46.742;11.636;2022-10-10T12:07:46;5.03;;;2.03;;
2766;SDS011;1391;46.742;11.636;2022-10-10T12:10:30;7.77;;;2.60;;
2766;SDS011;1391;46.742;11.636;2022-10-10T12:13:15;5.83;;;2.00;;
2766;SDS011;1391;46.742;11.636;2022-10-10T12:15:53;3.60;;;2.33;;
2766;SDS011;1391;46.742;11.636;2022-10-10T12:18:24;6.13;;;2.40;;
2766;SDS011;1391;46.742;11.636;2022-10-10T12:21:03;4.40;;;2.10;;
2766;SDS011;1391;46.742;11.636;2022-10-10T12:23:33;4.23;;;2.53;;
2766;SDS011;1391;46.742;11.636;2022-10-10T12:26:01;8.13;;;2.30;;
2766;SDS011;1391;46.742;11.636;2022-10-10T12:28:35;5.90;;;2.30;;
2766;SDS011;1391;46.742;11.636;2022-10-10T12:31:31;3.37;;;2.30;;
2766;SDS011;1391;46.742;11.636;2022-10-10T12:34:13;5.37;;;2.50;;
2766;SDS011;1391;46.742;11.636;2022-10-10T12:37:19;4.57;;;2.67;;
2766;SDS011;1391;46.742;11.636;2022-10-10T12:40:15;7.27;;;2.63;;
2766;SDS011;1391;46.742;11.636;2022-10-10T12:43:18;4.80;;;2.30;;
2766;SDS011;1391;46.742;11.636;2022-10-10T12:46:07;3.27;;;2.27;;
2766;SDS011;1391;46.742;11.636;2022-10-10T12:49:00;7.07;;;2.40;;
2766;SDS011;1391;46.742;11.636;2022-10-10T12:51:38;4.40;;;2.37;;
2766;SDS011;1391;46.742;11.636;2022-10-10T12:54:07;8.53;;;2.40;;
2766;SDS011;1391;46.742;11.636;2022-10-10T12:57:13;6.87;;;2.57;;
2766;SDS011;1391;46.742;11.636;2022-10-10T12:59:48;9.90;;;2.53;;
2766;SDS011;1391;46.742;11.636;2022-10-10T13:02:19;5.53;;;2.43;;
2766;SDS011;1391;46.742;11.636;2022-10-10T13:04:52;7.17;;;2.60;;
2766;SDS011;1391;46.742;11.636;2022-10-10T13:07:23;11.17;;;2.77;;
2766;SDS011;1391;46.742;11.636;2022-10-10T13:09:52;13.20;;;3.63;;
2766;SDS011;1391;46.742;11.636;2022-10-10T13:12:22;4.87;;;2.23;;
2766;SDS011;1391;46.742;11.636;2022-10-10T13:14:51;6.10;;;2.30;;
2766;SDS011;1391;46.742;11.636;2022-10-10T13:17:40;3.90;;;2.43;;
2766;SDS011;1391;46.742;11.636;2022-10-10T13:20:19;4.03;;;2.30;;
2766;SDS011;1391;46.742;11.636;2022-10-10T13:22:56;3.33;;;2.40;;
2766;SDS011;1391;46.742;11.636;2022-10-10T13:25:24;3.00;;;2.10;;
2766;SDS011;1391;46.742;11.636;2022-10-10T13:27:54;4.53;;;2.17;;
2766;SDS011;1391;46.742;11.636;2022-10-10T13:30:22;3.30;;;2.27;;
2766;SDS011;1391;46.742;11.636;2022-10-10T13:32:52;6.93;;;2.70;;
2766;SDS011;1391;46.742;11.636;2022-10-10T13:35:22;5.17;;;2.67;;
2766;SDS011;1391;46.742;11.636;2022-10-10T13:37:54;5.10;;;1.90;;
2766;SDS011;1391;46.742;11.636;2022-10-10T13:40:24;5.17;;;2.30;;
2766;SDS011;1391;46.742;11.636;2022-10-10T13:42:53;9.27;;;2.50;;
2766;SDS011;1391;46.742;11.636;2022-10-10T13:45:30;3.07;;;2.30;;
2766;SDS011;1391;46.742;11.636;2022-10-10T13:51:00;4.90;;;2.97;;
2766;SDS011;1391;46.742;11.636;2022-10-10T13:53:32;5.07;;;2.20;;
2766;SDS011;1391;46.742;11.636;2022-10-10T13:56:18;6.87;;;2.83;;
2766;SDS011;1391;46.742;11.636;2022-10-10T13:58:54;4.53;;;2.07;;
2766;SDS011;1391;46.742;11.636;2022-10-10T14:01:35;3.73;;;2.30;;
2766;SDS011;1391;46.742;11.636;2022-10-10T14:04:07;4.27;;;2.47;;
2766;SDS011;1391;46.742;11.636;2022-10-10T14:09:33;7.50;;;2.50;;
2766;SDS011;1391;46.742;11.636;2022-10-10T14:12:05;4.50;;;2.27;;
2766;SDS011;1391;46.742;11.636;2022-10-10T14:14:43;5.60;;;2.60;;
2766;SDS011;1391;46.742;11.636;2022-10-10T14:17:13;4.50;;;2.90;;
2766;SDS011;1391;46.742;11.636;2022-10-10T14:19:42;8.73;;;2.50;;
2766;SDS011;1391;46.742;11.636;2022-10-10T14:22:12;12.33;;;3.03;;
2766;SDS011;1391;46.742;11.636;2022-10-10T14:24:39;6.57;;;2.47;;
2766;SDS011;1391;46.742;11.636;2022-10-10T14:27:11;9.47;;;5.10;;
2766;SDS011;1391;46.742;11.636;2022-10-10T14:29:49;9.80;;;5.37;;
2766;SDS011;1391;46.742;11.636;2022-10-10T14:32:17;15.73;;;7.77;;
2766;SDS011;1391;46.742;11.636;2022-10-10T14:34:47;10.43;;;5.20;;
2766;SDS011;1391;46.742;11.636;2022-10-10T14:37:16;7.17;;;3.77;;
2766;SDS011;1391;46.742;11.636;2022-10-10T14:39:45;3.30;;;2.67;;
2766;SDS011;1391;46.742;11.636;2022-10-10T14:42:14;8.40;;;2.47;;
2766;SDS011;1391;46.742;11.636;2022-10-10T14:44:43;4.40;;;2.60;;
2766;SDS011;1391;46.742;11.636;2022-10-10T14:47:13;7.63;;;2.60;;
2766;SDS011;1391;46.742;11.636;2022-10-10T14:49:42;7.23;;;2.60;;
2766;SDS011;1391;46.742;11.636;2022-10-10T14:52:11;4.70;;;2.60;;
2766;SDS011;1391;46.742;11.636;2022-10-10T14:54:39;7.17;;;2.93;;
2766;SDS011;1391;46.742;11.636;2022-10-10T14:57:06;5.20;;;3.50;;
2766;SDS011;1391;46.742;11.636;2022-10-10T14:59:35;5.70;;;2.90;;
2766;SDS011;1391;46.742;11.636;2022-10-10T15:02:03;5.67;;;3.40;;
2766;SDS011;1391;46.742;11.636;2022-10-10T15:04:30;3.07;;;2.67;;
2766;SDS011;1391;46.742;11.636;2022-10-10T15:06:57;8.17;;;2.90;;
2766;SDS011;1391;46.742;11.636;2022-10-10T15:09:26;6.63;;;2.37;;
2766;SDS011;1391;46.742;11.636;2022-10-10T15:11:53;7.10;;;2.80;;
2766;SDS011;1391;46.742;11.636;2022-10-10T15:14:20;4.63;;;2.73;;
2766;SDS011;1391;46.742;11.636;2022-10-10T15:16:48;13.67;;;5.23;;
2766;SDS011;1391;46.742;11.636;2022-10-10T15:19:15;7.93;;;6.40;;
2766;SDS011;1391;46.742;11.636;2022-10-10T15:21:43;9.73;;;7.30;;
2766;SDS011;1391;46.742;11.636;2022-10-10T15:24:10;10.40;;;7.93;;
2766;SDS011;1391;46.742;11.636;2022-10-10T15:26:38;10.67;;;5.63;;
2766;SDS011;1391;46.742;11.636;2022-10-10T15:29:06;9.50;;;4.93;;
2766;SDS011;1391;46.742;11.636;2022-10-10T15:31:33;13.23;;;3.53;;
2766;SDS011;1391;46.742;11.636;2022-10-10T15:34:00;7.97;;;3.30;;
2766;SDS011;1391;46.742;11.636;2022-10-10T15:36:28;3.67;;;3.07;;
2766;SDS011;1391;46.742;11.636;2022-10-10T15:38:56;7.87;;;3.70;;
2766;SDS011;1391;46.742;11.636;2022-10-10T15:41:24;6.30;;;3.47;;
2766;SDS011;1391;46.742;11.636;2022-10-10T15:43:52;8.17;;;3.57;;
2766;SDS011;1391;46.742;11.636;2022-10-10T15:46:20;6.27;;;3.27;;